createdAt,value
2018-09-02T00:02:17.590Z,99.30
2018-09-02T00:04:45.248Z,99.40
2018-09-02T00:07:12.982Z,99.50
2018-09-02T00:09:40.656Z,99.60
2018-09-02T00:12:08.331Z,99.80
2018-09-02T00:14:36.094Z,99.90
2018-09-02T00:17:03.756Z,99.90
2018-09-02T00:19:31.390Z,99.90
2018-09-02T00:21:59.124Z,99.90
2018-09-02T00:24:26.751Z,99.90
2018-09-02T00:26:54.416Z,99.90
2018-09-02T00:29:22.053Z,99.90
2018-09-02T00:31:49.767Z,99.90
2018-09-02T00:34:17.473Z,99.90
2018-09-02T00:36:45.132Z,99.90
2018-09-02T00:39:12.837Z,99.90
2018-09-02T00:41:40.525Z,99.90
2018-09-02T00:44:08.505Z,99.90
2018-09-02T00:46:36.193Z,99.90
2018-09-02T00:49:03.888Z,99.90
2018-09-02T00:51:31.558Z,99.90
2018-09-02T00:53:59.187Z,99.90
2018-09-02T00:56:29.073Z,99.90
2018-09-02T00:58:56.785Z,99.90
2018-09-02T01:01:24.523Z,99.90
2018-09-02T01:03:52.147Z,99.90
2018-09-02T01:06:20.224Z,99.90
2018-09-02T01:08:47.947Z,99.90
2018-09-02T01:11:15.612Z,99.90
2018-09-02T01:13:43.253Z,99.90
2018-09-02T01:16:10.973Z,99.90
2018-09-02T01:18:38.631Z,99.90
2018-09-02T01:21:06.395Z,99.90
2018-09-02T01:23:34.040Z,99.90
2018-09-02T01:26:01.744Z,99.90
2018-09-02T01:28:29.434Z,99.90
2018-09-02T01:30:57.124Z,99.90
2018-09-02T01:33:24.766Z,99.90
2018-09-02T01:35:52.450Z,99.90
2018-09-02T01:38:20.092Z,99.90
2018-09-02T01:40:47.774Z,99.90
2018-09-02T01:43:15.404Z,99.90
2018-09-02T01:45:43.088Z,99.90
2018-09-02T01:48:10.717Z,99.90
2018-09-02T01:50:38.370Z,99.90
2018-09-02T01:53:06.038Z,99.90
2018-09-02T01:55:33.830Z,99.90
2018-09-02T01:58:01.545Z,99.90
2018-09-02T02:00:29.289Z,99.90
2018-09-02T02:02:56.938Z,99.90
2018-09-02T02:05:24.593Z,99.90
2018-09-02T02:07:52.264Z,99.90
2018-09-02T02:10:19.904Z,99.90
2018-09-02T02:12:47.568Z,99.90
2018-09-02T02:15:15.269Z,99.90
2018-09-02T02:17:42.926Z,99.90
2018-09-02T02:20:10.621Z,99.90
2018-09-02T02:22:38.288Z,99.90
2018-09-02T02:25:05.930Z,99.90
2018-09-02T02:27:33.632Z,99.90
2018-09-02T02:30:01.332Z,99.90
2018-09-02T02:32:29.011Z,99.90
2018-09-02T02:34:56.659Z,99.90
2018-09-02T02:37:24.315Z,99.90
2018-09-02T02:39:51.978Z,99.90
2018-09-02T02:42:19.675Z,99.90
2018-09-02T02:44:47.360Z,99.90
2018-09-02T02:47:15.107Z,99.90
2018-09-02T02:49:42.786Z,99.90
2018-09-02T02:52:10.416Z,99.90
2018-09-02T02:54:38.091Z,99.90
2018-09-02T02:57:05.804Z,99.90
2018-09-02T02:59:33.473Z,99.90
2018-09-02T03:02:01.381Z,99.90
2018-09-02T03:04:29.099Z,99.90
2018-09-02T03:06:56.832Z,99.90
2018-09-02T03:09:24.517Z,99.90
2018-09-02T03:11:52.390Z,99.90
2018-09-02T03:14:20.131Z,99.90
2018-09-02T03:16:47.789Z,99.90
2018-09-02T03:19:15.453Z,99.90
2018-09-02T03:21:43.181Z,99.90
2018-09-02T03:24:10.888Z,99.90
2018-09-02T03:26:38.665Z,99.90
2018-09-02T03:29:06.459Z,99.90
2018-09-02T03:31:34.095Z,99.90
2018-09-02T03:34:01.774Z,99.90
2018-09-02T03:36:29.406Z,99.90
2018-09-02T03:38:57.141Z,99.90
2018-09-02T03:41:24.869Z,99.90
2018-09-02T03:43:52.670Z,99.90
2018-09-02T03:46:20.378Z,99.90
2018-09-02T03:48:48.175Z,99.90
2018-09-02T03:51:15.858Z,99.90
2018-09-02T03:53:43.525Z,99.90
2018-09-02T03:56:11.201Z,99.90
2018-09-02T03:58:38.945Z,99.90
2018-09-02T04:01:06.644Z,99.90
2018-09-02T04:03:34.345Z,99.90
2018-09-02T04:06:01.982Z,99.90
2018-09-02T04:08:29.624Z,99.90
2018-09-02T04:10:57.436Z,99.90
2018-09-02T04:13:25.168Z,99.90
2018-09-02T04:15:52.814Z,99.90
2018-09-02T04:18:20.463Z,99.90
2018-09-02T04:20:48.140Z,99.90
2018-09-02T04:23:15.787Z,99.90
2018-09-02T04:25:43.460Z,99.90
2018-09-02T04:28:11.202Z,99.90
2018-09-02T04:30:38.880Z,99.90
2018-09-02T04:33:06.540Z,99.90
2018-09-02T04:35:34.236Z,99.90
2018-09-02T04:38:02.040Z,99.90
2018-09-02T04:40:29.800Z,99.90
2018-09-02T04:42:57.469Z,99.90
2018-09-02T04:45:25.352Z,99.90
2018-09-02T04:47:52.994Z,99.90
2018-09-02T04:50:21.099Z,99.90
2018-09-02T04:52:48.773Z,99.90
2018-09-02T04:55:16.423Z,99.90
2018-09-02T04:57:44.820Z,99.90
2018-09-02T05:00:12.604Z,99.90
2018-09-02T05:02:40.380Z,99.90
2018-09-02T05:05:08.082Z,99.90
2018-09-02T05:07:36.095Z,99.90
2018-09-02T05:10:04.451Z,99.90
2018-09-02T05:12:32.101Z,99.90
2018-09-02T05:14:59.809Z,99.90
2018-09-02T05:17:29.188Z,99.90
2018-09-02T05:19:57.443Z,99.90
2018-09-02T05:22:25.130Z,99.90
2018-09-02T05:24:52.809Z,99.90
2018-09-02T05:27:23.738Z,99.90
2018-09-02T05:29:52.000Z,99.90
2018-09-02T05:32:20.212Z,99.90
2018-09-02T05:34:47.940Z,99.90
2018-09-02T05:37:15.705Z,99.90
2018-09-02T05:39:43.437Z,99.90
2018-09-02T05:42:11.244Z,99.90
2018-09-02T05:44:39.232Z,99.90
2018-09-02T05:47:07.322Z,99.90
2018-09-02T05:49:35.035Z,99.90
2018-09-02T05:52:02.929Z,99.90
2018-09-02T05:54:30.599Z,99.90
2018-09-02T05:56:58.518Z,99.90
2018-09-02T05:59:26.265Z,99.90
2018-09-02T06:01:53.929Z,99.90
2018-09-02T06:04:21.577Z,99.90
2018-09-02T06:06:49.206Z,99.90
2018-09-02T06:09:16.921Z,99.90
2018-09-02T06:11:44.590Z,99.90
2018-09-02T06:14:12.344Z,99.90
2018-09-02T06:16:40.140Z,99.90
2018-09-02T06:19:07.848Z,99.90
2018-09-02T06:21:35.565Z,99.90
2018-09-02T06:24:03.312Z,99.90
2018-09-02T06:26:30.998Z,99.90
2018-09-02T06:28:58.674Z,99.90
2018-09-02T06:31:26.412Z,99.90
2018-09-02T06:33:54.047Z,99.90
2018-09-02T06:36:21.788Z,99.90
2018-09-02T06:38:49.529Z,99.90
2018-09-02T06:41:17.265Z,99.90
2018-09-02T06:43:44.973Z,99.90
2018-09-02T06:46:12.685Z,99.90
2018-09-02T06:48:40.373Z,99.90
2018-09-02T06:51:08.033Z,99.90
2018-09-02T06:53:35.656Z,99.90
2018-09-02T06:56:03.388Z,99.90
2018-09-02T06:58:31.119Z,99.90
2018-09-02T07:00:58.801Z,99.90
2018-09-02T07:03:26.493Z,99.90
2018-09-02T07:05:54.203Z,99.90
2018-09-02T07:08:21.893Z,99.90
2018-09-02T07:10:49.659Z,99.90
2018-09-02T07:13:18.048Z,99.90
2018-09-02T07:15:46.470Z,99.90
2018-09-02T07:18:14.957Z,99.90
2018-09-02T07:20:43.297Z,99.90
2018-09-02T07:23:11.013Z,99.90
2018-09-02T07:25:39.245Z,99.90
2018-09-02T07:28:07.727Z,99.90
2018-09-02T07:30:36.005Z,99.90
2018-09-02T07:33:04.525Z,99.90
2018-09-02T07:35:33.618Z,99.90
2018-09-02T07:38:02.055Z,99.90
2018-09-02T07:40:30.316Z,99.70
2018-09-02T07:42:57.997Z,99.40
2018-09-02T07:45:26.506Z,99.20
2018-09-02T07:47:54.742Z,98.80
2018-09-02T07:50:23.084Z,98.50
2018-09-02T07:52:53.149Z,98.30
2018-09-02T07:55:21.294Z,98.00
2018-09-02T07:57:49.857Z,97.70
2018-09-02T08:00:18.455Z,97.70
2018-09-02T08:02:46.801Z,97.60
2018-09-02T08:05:15.169Z,97.40
2018-09-02T08:07:43.678Z,97.10
2018-09-02T08:10:12.416Z,97.10
2018-09-02T08:12:40.501Z,97.00
2018-09-02T08:15:08.555Z,96.90
2018-09-02T08:17:36.988Z,96.60
2018-09-02T08:20:06.332Z,96.30
2018-09-02T08:22:35.819Z,96.10
2018-09-02T08:25:04.574Z,96.00
2018-09-02T08:27:32.426Z,95.90
2018-09-02T08:30:01.542Z,95.80
2018-09-02T08:32:30.743Z,95.50
2018-09-02T08:35:00.035Z,95.20
2018-09-02T08:37:28.985Z,95.10
2018-09-02T08:39:57.701Z,95.30
2018-09-02T08:42:26.996Z,95.10
2018-09-02T08:44:56.576Z,94.90
2018-09-02T08:47:25.212Z,94.80
2018-09-02T08:49:54.139Z,94.10
2018-09-02T08:52:22.873Z,93.80
2018-09-02T08:54:51.841Z,93.30
2018-09-02T08:57:20.586Z,93.10
2018-09-02T08:59:49.743Z,93.20
2018-09-02T09:02:18.587Z,92.60
2018-09-02T09:04:47.373Z,92.20
2018-09-02T09:07:15.997Z,92.00
2018-09-02T09:09:44.914Z,91.10
2018-09-02T09:12:13.754Z,90.80
2018-09-02T09:14:42.390Z,91.40
2018-09-02T09:17:10.280Z,91.30
2018-09-02T09:19:38.025Z,91.20
2018-09-02T09:22:05.873Z,91.30
2018-09-02T09:24:33.486Z,90.60
2018-09-02T09:27:01.376Z,90.40
2018-09-02T09:29:29.518Z,90.60
2018-09-02T09:31:57.219Z,90.40
2018-09-02T09:34:24.933Z,90.00
2018-09-02T09:36:52.604Z,90.10
2018-09-02T09:39:20.220Z,89.90
2018-09-02T09:41:47.880Z,88.30
2018-09-02T09:44:15.509Z,85.70
2018-09-02T09:46:43.238Z,85.00
2018-09-02T09:49:11.019Z,84.70
2018-09-02T09:51:38.750Z,83.70
2018-09-02T09:54:06.502Z,84.00
2018-09-02T09:56:34.185Z,84.20
2018-09-02T09:59:01.824Z,83.90
2018-09-02T10:01:29.513Z,82.40
2018-09-02T10:03:57.202Z,82.60
2018-09-02T10:06:24.837Z,82.80
2018-09-02T10:08:52.498Z,81.90
2018-09-02T10:11:20.187Z,80.10
2018-09-02T10:13:48.132Z,79.10
2018-09-02T10:16:15.952Z,77.40
2018-09-02T10:18:43.684Z,78.20
2018-09-02T10:21:11.353Z,77.70
2018-09-02T10:23:39.073Z,77.10
2018-09-02T10:26:06.861Z,77.10
2018-09-02T10:28:34.619Z,77.40
2018-09-02T10:31:02.355Z,76.80
2018-09-02T10:33:30.187Z,79.20
2018-09-02T10:35:58.029Z,76.80
2018-09-02T10:38:25.741Z,77.60
2018-09-02T10:40:53.591Z,77.30
2018-09-02T10:43:21.421Z,75.00
2018-09-02T10:45:49.156Z,74.10
2018-09-02T10:48:16.851Z,73.80
2018-09-02T10:50:44.628Z,74.00
2018-09-02T10:53:12.293Z,70.70
2018-09-02T10:55:40.468Z,72.10
2018-09-02T10:58:08.278Z,71.20
2018-09-02T11:00:36.079Z,70.80
2018-09-02T11:03:03.884Z,70.70
2018-09-02T11:05:31.646Z,70.00
2018-09-02T11:07:59.465Z,70.00
2018-09-02T11:10:27.234Z,68.80
2018-09-02T11:12:55.167Z,67.00
2018-09-02T11:15:23.012Z,66.80
2018-09-02T11:17:50.886Z,67.00
2018-09-02T11:20:18.943Z,63.70
2018-09-02T11:22:46.760Z,62.40
2018-09-02T11:25:14.605Z,64.00
2018-09-02T11:27:42.444Z,61.90
2018-09-02T11:30:10.244Z,62.00
2018-09-02T11:32:38.128Z,60.20
2018-09-02T11:35:05.958Z,58.90
2018-09-02T11:37:33.792Z,57.80
2018-09-02T11:40:01.944Z,57.60
2018-09-02T11:42:29.960Z,56.90
2018-09-02T11:44:57.775Z,56.90
2018-09-02T11:47:25.552Z,55.80
2018-09-02T11:49:53.378Z,55.20
2018-09-02T11:52:21.064Z,54.40
2018-09-02T11:54:48.850Z,54.10
2018-09-02T11:57:16.637Z,51.40
2018-09-02T11:59:44.438Z,51.30
2018-09-02T12:02:14.160Z,50.80
2018-09-02T12:04:41.940Z,48.60
2018-09-02T12:07:09.686Z,48.40
2018-09-02T12:09:37.349Z,47.90
2018-09-02T12:12:05.080Z,47.00
2018-09-02T12:14:32.900Z,45.70
2018-09-02T12:17:00.562Z,44.70
2018-09-02T12:19:28.413Z,43.40
2018-09-02T12:21:56.176Z,42.40
2018-09-02T12:24:23.967Z,42.00
2018-09-02T12:26:51.731Z,40.50
2018-09-02T12:29:19.404Z,40.20
2018-09-02T12:31:47.048Z,39.20
2018-09-02T12:38:08.022Z,42.50
2018-09-02T12:40:37.298Z,43.10
2018-09-02T12:43:06.545Z,43.50
2018-09-02T12:48:05.162Z,43.00
2018-09-02T12:50:34.528Z,42.40
2018-09-02T12:53:03.916Z,43.30
2018-09-02T12:55:33.351Z,43.20
2018-09-02T13:00:33.569Z,44.50
2018-09-02T13:03:03.784Z,45.00
2018-09-02T13:05:33.033Z,44.50
2018-09-02T13:10:32.469Z,43.30
2018-09-02T13:20:28.760Z,42.40
2018-09-02T13:22:58.034Z,41.80
2018-09-02T13:25:27.378Z,41.00
2018-09-02T13:27:57.255Z,40.10
2018-09-02T13:30:26.657Z,40.60
2018-09-02T13:32:56.049Z,39.80
2018-09-02T13:37:54.424Z,39.90
2018-09-02T13:42:52.712Z,38.90
2018-09-02T13:47:50.898Z,38.40
2018-09-02T13:52:49.232Z,38.30
2018-09-02T13:55:18.764Z,37.50
2018-09-02T13:57:48.167Z,37.20
2018-09-02T14:00:17.591Z,36.70
2018-09-02T14:02:47.273Z,35.90
2018-09-02T14:05:16.617Z,35.40
2018-09-02T14:07:45.919Z,35.50
2018-09-02T14:12:44.225Z,35.30
2018-09-02T14:15:13.863Z,34.90
2018-09-02T14:17:43.730Z,35.30
2018-09-02T14:20:13.197Z,34.80
2018-09-02T14:22:43.297Z,34.50
2018-09-02T14:27:41.907Z,34.60
2018-09-02T14:30:11.181Z,35.50
2018-09-02T14:32:40.608Z,35.00
2018-09-02T14:35:09.901Z,34.50
2018-09-02T14:37:39.237Z,34.90
2018-09-02T14:40:08.733Z,34.90
2018-09-02T14:42:38.024Z,34.70
2018-09-02T14:45:07.492Z,34.20
2018-09-02T14:50:06.239Z,34.10
2018-09-02T14:52:35.508Z,33.60
2018-09-02T14:55:04.914Z,32.60
2018-09-02T14:57:34.280Z,33.00
2018-09-02T15:00:03.623Z,31.20
2018-09-02T15:02:32.872Z,31.80
2018-09-02T15:07:31.016Z,30.10
2018-09-02T15:10:00.286Z,30.70
2018-09-02T15:12:29.508Z,30.90
2018-09-02T15:14:58.797Z,31.10
2018-09-02T15:17:28.028Z,30.50
2018-09-02T15:19:57.299Z,30.70
2018-09-02T15:22:26.553Z,30.70
2018-09-02T15:24:55.796Z,31.00
2018-09-02T15:27:25.061Z,30.10
2018-09-02T15:29:54.272Z,30.60
2018-09-02T15:32:23.496Z,30.40
2018-09-02T15:37:21.539Z,30.50
2018-09-02T15:39:50.969Z,29.60
2018-09-02T15:42:20.291Z,29.20
2018-09-02T15:44:49.556Z,29.40
2018-09-02T15:47:18.813Z,29.50
2018-09-02T15:49:48.082Z,28.60
2018-09-02T15:52:17.339Z,28.70
2018-09-02T15:54:46.619Z,28.60
2018-09-02T15:57:15.910Z,28.00
2018-09-02T15:59:45.175Z,28.00
2018-09-02T16:02:14.427Z,27.60
2018-09-02T16:04:43.723Z,27.20
2018-09-02T16:07:12.999Z,27.40
2018-09-02T16:09:42.244Z,27.20
2018-09-02T16:12:11.516Z,27.20
2018-09-02T16:14:40.749Z,27.60
2018-09-02T16:17:10.028Z,27.80
2018-09-02T16:19:39.267Z,27.80
2018-09-02T16:22:08.559Z,27.10
2018-09-02T16:24:37.910Z,27.60
2018-09-02T16:27:07.223Z,27.50
2018-09-02T16:29:36.541Z,28.00
2018-09-02T16:32:05.898Z,28.30
2018-09-02T16:34:35.202Z,28.70
2018-09-02T16:39:33.848Z,29.90
2018-09-02T16:44:31.932Z,33.10
2018-09-02T16:47:01.148Z,35.70
2018-09-02T16:51:59.274Z,39.10
2018-09-02T16:54:28.527Z,41.30
2018-09-02T16:56:57.771Z,43.00
2018-09-02T16:59:26.999Z,44.40
2018-09-02T17:01:56.281Z,45.60
2018-09-02T17:04:27.252Z,45.80
2018-09-02T17:06:56.522Z,47.50
2018-09-02T17:09:25.764Z,47.90
2018-09-02T17:14:23.867Z,49.30
2018-09-02T17:16:53.108Z,50.10
2018-09-02T17:19:25.812Z,49.80
2018-09-02T17:24:23.921Z,51.90
2018-09-02T17:26:53.288Z,52.10
2018-09-02T17:29:22.497Z,52.30
2018-09-02T17:34:20.645Z,53.10
2018-09-02T17:36:49.936Z,53.70
2018-09-02T17:39:19.169Z,54.00
2018-09-02T17:41:48.471Z,54.20
2018-09-02T17:44:17.689Z,54.60
2018-09-02T17:49:15.744Z,55.40
2018-09-02T17:51:44.959Z,55.90
2018-09-02T17:56:43.192Z,55.80
2018-09-02T17:59:12.661Z,55.60
2018-09-02T18:01:42.006Z,56.00
2018-09-02T18:04:11.351Z,55.50
2018-09-02T18:06:40.583Z,55.50
2018-09-02T18:09:10.966Z,56.00
2018-09-02T18:11:40.964Z,56.40
2018-09-02T18:14:10.286Z,56.50
2018-09-02T18:16:39.806Z,56.30
2018-09-02T18:19:09.729Z,56.20
2018-09-02T18:21:38.972Z,56.90
2018-09-02T18:24:08.331Z,57.00
2018-09-02T18:26:37.571Z,56.80
2018-09-02T18:29:06.857Z,57.00
2018-09-02T18:31:36.526Z,57.30
2018-09-02T18:34:05.864Z,57.70
2018-09-02T18:41:33.768Z,58.00
2018-09-02T18:44:03.149Z,58.30
2018-09-02T18:46:32.537Z,58.30
2018-09-02T18:49:02.049Z,59.10
2018-09-02T18:51:31.342Z,59.40
2018-09-02T18:54:00.618Z,59.20
2018-09-02T18:58:59.178Z,59.60
2018-09-02T19:03:57.409Z,59.30
2018-09-02T19:06:27.007Z,59.30
2018-09-02T19:11:25.063Z,59.50
2018-09-02T19:13:54.303Z,59.50
2018-09-02T19:16:23.589Z,60.20
2018-09-02T19:18:54.239Z,60.50
2018-09-02T19:21:23.628Z,60.50
2018-09-02T19:23:53.178Z,60.70
2018-09-02T19:26:22.568Z,61.80
2018-09-02T19:28:51.900Z,62.20
2018-09-02T19:31:21.205Z,62.50
2018-09-02T19:33:50.552Z,62.40
2018-09-02T19:36:19.952Z,63.10
2018-09-02T19:38:49.504Z,63.20
2018-09-02T19:43:47.774Z,63.00
2018-09-02T19:48:45.824Z,63.70
2018-09-02T19:51:15.196Z,64.60
2018-09-02T19:53:44.499Z,64.70
2018-09-02T19:56:13.947Z,64.10
2018-09-02T20:01:12.243Z,65.30
2018-09-02T20:03:41.615Z,64.40
2018-09-02T20:08:39.778Z,65.20
2018-09-02T20:16:06.925Z,65.80
2018-09-02T20:18:36.286Z,67.10
2018-09-02T20:21:05.544Z,66.90
2018-09-02T20:23:34.914Z,66.90
2018-09-02T20:26:04.340Z,66.90
2018-09-02T20:40:58.268Z,69.70
2018-09-02T20:43:27.571Z,69.90
2018-09-02T20:45:56.841Z,70.20
2018-09-02T20:48:26.226Z,70.60
2018-09-02T20:50:55.620Z,71.50
2018-09-02T20:55:54.091Z,71.20
2018-09-02T20:58:23.459Z,71.60
2018-09-02T21:00:52.814Z,71.50
2018-09-02T21:03:24.754Z,72.60
2018-09-02T21:05:54.090Z,72.70
2018-09-02T21:10:52.464Z,72.90
2018-09-02T21:15:50.619Z,74.00
2018-09-02T21:18:19.873Z,74.50
2018-09-02T21:20:49.161Z,74.60
2018-09-02T21:23:18.405Z,74.60
2018-09-02T21:28:16.539Z,74.90
2018-09-02T21:33:14.576Z,75.00
2018-09-02T21:35:43.876Z,75.30
2018-09-02T21:38:13.193Z,75.80
2018-09-02T21:40:42.451Z,76.60
2018-09-02T21:43:11.681Z,77.00
2018-09-02T21:48:09.781Z,77.30
2018-09-02T21:55:36.771Z,77.40
2018-09-02T22:00:34.835Z,77.80
2018-09-02T22:03:04.166Z,78.40
2018-09-02T22:05:35.544Z,78.10
2018-09-02T22:08:04.872Z,78.50
2018-09-02T22:10:34.131Z,78.70
2018-09-02T22:18:01.007Z,80.00
2018-09-02T22:20:30.250Z,79.40
2018-09-02T22:22:59.490Z,79.80
2018-09-02T22:25:28.762Z,80.40
2018-09-02T22:30:26.823Z,80.80
2018-09-02T22:32:56.107Z,81.60
2018-09-02T22:35:25.435Z,81.10
2018-09-02T22:37:54.693Z,82.00
2018-09-02T22:42:52.732Z,82.40
2018-09-02T22:45:22.972Z,82.00
2018-09-02T22:47:52.318Z,82.80
2018-09-02T22:50:21.611Z,82.90
2018-09-02T22:52:50.883Z,83.00
2018-09-02T22:55:20.091Z,83.30
2018-09-02T22:57:49.449Z,83.70
2018-09-02T23:00:18.714Z,84.20
2018-09-02T23:02:47.979Z,84.70
2018-09-02T23:05:17.193Z,84.70
2018-09-02T23:12:44.330Z,85.90
2018-09-02T23:15:13.687Z,85.50
2018-09-02T23:17:42.958Z,85.60
2018-09-02T23:20:12.247Z,86.20
2018-09-02T23:22:41.522Z,86.60
2018-09-02T23:25:10.819Z,87.30
2018-09-02T23:27:40.121Z,87.20
2018-09-02T23:35:06.987Z,88.60
2018-09-02T23:37:36.255Z,88.40
2018-09-02T23:40:05.523Z,89.80
2018-09-02T23:45:03.660Z,89.90
2018-09-02T23:47:32.937Z,90.40
2018-09-02T23:50:02.169Z,90.00
2018-09-02T23:52:31.397Z,90.20
2018-09-02T23:57:29.493Z,90.60
2018-09-02T23:59:58.771Z,91.00
